• Join FlightAware (Why Join?)
  • Login
  • US Flag 
02:31PM EDT


 

Airport Tracker/Info


-or-


 

Live Flight TrackerFlight Track Log ✈ N6101G ✈ 12-Oct-2013 ✈ KCLT - KACK

Flight Track Log - Related Links

Times and Time Zones

All times are in EDT time to prevent confusion due to time zone crossing. See the N6101G flight status page for this flight to view local times or setup timezone preferences in your user account.

Time Position Orientation Groundspeed Altitude Reporting Facility
EDT Latitude Longitude Course Direction KTS MPH feet Rate Location/Type
08:32AM 35.2325 -80.9342 61° Northeast 112 129 1,300  Level Atlanta Center
08:32AM 35.2383 -80.9211 61° Northeast 124 143 1,600 960 Climbing Atlanta Center
08:33AM 35.2350 -80.8678 94° East 150 173 2,800 1,140 Climbing Atlanta Center
08:34AM 35.2358 -80.8194 89° East 150 173 4,100 1,260 Climbing Atlanta Center
08:35AM 35.2344 -80.7636 92° East 156 180 5,400 1,200 Climbing Atlanta Center
08:35AM 35.2319 -80.7486 102° East 159 183 5,700 1,260 Climbing Atlanta Center
08:36AM 35.2328 -80.7078 89° East 167 192 6,700 1,380 Climbing Atlanta Center
08:36AM 35.2303 -80.6900 100° East 165 190 7,100 1,260 Climbing Atlanta Center
08:37AM 35.2286 -80.6342 92° East 171 197 8,400 1,200 Climbing Atlanta Center
08:38AM 35.2272 -80.5808 92° East 172 198 9,600 1,140 Climbing Atlanta Center
08:40AM 35.2219 -80.4686 93° East 163 188 12,000 1,080 Climbing Washington Center
08:41AM 35.2200 -80.4150 93° East 163 188 12,900 960 Climbing Washington Center
08:42AM 35.2203 -80.3564 90° East 163 188 14,000 1,140 Climbing Washington Center
08:43AM 35.2208 -80.2881 89° East 175 201 15,200 1,020 Climbing Washington Center
08:44AM 35.2167 -80.2317 95° East 182 209 16,100 960 Climbing Washington Center
08:45AM 35.2153 -80.1631 91° East 182 209 17,200 900 Climbing Washington Center
08:46AM 35.2458 -80.1267 44° Northeast 159 183 18,000 840 Climbing Washington Center
08:47AM 35.2828 -80.0906 39° Northeast 159 183 18,900 960 Climbing Washington Center
08:48AM 35.3239 -80.0522 37° Northeast 169 194 19,900 960 Climbing Washington Center
08:49AM 35.3711 -80.0139 33° Northeast 176 203 20,900 900 Climbing Washington Center
08:50AM 35.4122 -79.9756 37° Northeast 176 203 21,800 960 Climbing Washington Center
08:51AM 35.4533 -79.9369 37° Northeast 176 203 22,800 900 Climbing Washington Center
08:52AM 35.4942 -79.9008 36° Northeast 181 208 23,700 840 Climbing Washington Center
08:53AM 35.5394 -79.8625 35° Northeast 181 208 24,500 840 Climbing Washington Center
08:54AM 35.5806 -79.8214 39° Northeast 181 208 25,400 840 Climbing Washington Center
08:55AM 35.6258 -79.7828 35° Northeast 186 214 26,300 780 Climbing Washington Center
08:56AM 35.6708 -79.7442 35° Northeast 186 214 27,000 300 Climbing Washington Center
08:57AM 35.7206 -79.6956 38° Northeast 213 245 27,000  Level Washington Center
08:58AM 35.7744 -79.6472 36° Northeast 230 265 27,000  Level Washington Center
08:59AM 35.8303 -79.6014 34° Northeast 235 270 27,000  Level Washington Center
09:00AM 35.8858 -79.5581 32° Northeast 235 270 27,000  Level Washington Center
09:01AM 35.9417 -79.5147 32° Northeast 235 270 27,000  Level Washington Center
09:02AM 35.9950 -79.4736 32° Northeast 235 270 27,000  Level Washington Center
09:03AM 36.0422 -79.4350 33° Northeast 229 264 27,000  Level Washington Center
09:04AM 36.1019 -79.3942 29° Northeast 223 257 27,000  Level Washington Center
09:05AM 36.1553 -79.3531 32° Northeast 223 257 27,000  Level Washington Center
09:06AM 36.2111 -79.3094 32° Northeast 223 257 27,000  Level Washington Center
09:07AM 36.2644 -79.2681 32° Northeast 223 257 27,000  Level Washington Center
09:08AM 36.3200 -79.2269 31° Northeast 223 257 27,000  Level Washington Center
09:09AM 36.3733 -79.1856 32° Northeast 223 257 27,000  Level Washington Center
09:10AM 36.4275 -79.1881 358° North 206 237 27,000  Level Washington Center
09:11AM 36.4900 -79.1908 358° North 211 243 27,000  Level Washington Center
09:12AM 36.5525 -79.1939 358° North 217 250 27,000  Level Washington Center
09:13AM 36.6150 -79.1992 356° North 217 250 27,000  Level Washington Center
09:14AM 36.6817 -79.2022 358° North 217 250 27,000  Level Washington Center
09:15AM 36.7400 -79.2050 358° North 217 250 27,000  Level Washington Center
09:16AM 36.8003 -79.2106 356° North 217 250 27,000  Level Washington Center
09:17AM 36.8608 -79.2133 358° North 217 250 27,000  Level Washington Center
09:18AM 36.9150 -79.2158 358° North 217 250 27,000  Level Washington Center
09:19AM 36.9733 -79.2186 358° North 212 244 27,000  Level Washington Center
09:20AM 37.0339 -79.2189 360° North 212 244 27,000  Level Washington Center
09:21AM 37.0908 -79.1928 20° North 217 250 27,000  Level Washington Center
09:22AM 37.1544 -79.1644 20° North 217 250 27,000  Level Washington Center
09:23AM 37.2092 -79.1436 17° North 217 250 27,000  Level Washington Center
09:24AM 37.2683 -79.1203 17° North 217 250 27,000  Level Washington Center
09:25AM 37.3192 -79.0967 20° North 212 244 27,000  Level Washington Center
09:26AM 37.3781 -79.0731 18° North 212 244 27,000  Level Washington Center
09:27AM 37.4350 -79.0522 16° North 212 244 27,000  Level Washington Center
09:28AM 37.5006 -79.0236 19° North 212 244 27,000  Level Washington Center
09:29AM 37.5575 -79.0028 16° North 212 244 27,000  Level Washington Center
09:30AM 37.6144 -78.9792 18° North 207 238 27,000  Level Washington Center
09:31AM 37.6714 -78.9553 18° North 207 238 27,000  Level Washington Center
09:32AM 37.7242 -78.9342 18° North 207 238 27,000  Level Washington Center
09:33AM 37.7811 -78.9131 16° North 207 238 27,000  Level Washington Center
09:34AM 37.8403 -78.8892 18° North 207 238 27,000  Level Washington Center
09:35AM 37.9036 -78.8606 20° North 207 238 27,000  Level Washington Center
09:36AM 37.9606 -78.8367 18° North 207 238 27,000  Level Washington Center
09:37AM 38.0194 -78.8153 16° North 207 238 27,000  Level Washington Center
09:38AM 38.0764 -78.7914 18° North 207 238 27,000  Level Washington Center
09:39AM 38.1314 -78.7675 19° North 207 238 27,000  Level Washington Center
09:40AM 38.1903 -78.7436 18° North 212 244 27,000  Level Washington Center
09:41AM 38.2472 -78.7194 18° North 212 244 27,000  Level Washington Center
09:42AM 38.2942 -78.6792 34° Northeast 207 238 27,000  Level Washington Center
09:43AM 38.3514 -78.6444 25° Northeast 207 238 27,000  Level Washington Center
09:44AM 38.4100 -78.6283 12° North 207 238 27,000  Level Washington Center
09:45AM 38.4711 -78.6094 14° North 213 245 27,000  Level Washington Center
09:46AM 38.5300 -78.5908 14° North 213 245 27,000  Level Washington Center
09:47AM 38.5908 -78.5719 14° North 219 252 27,000  Level Washington Center
09:48AM 38.6339 -78.5206 43° Northeast 212 244 27,000  Level Washington Center
09:49AM 38.6750 -78.4608 49° Northeast 212 244 27,000  Level Washington Center
09:50AM 38.7136 -78.4067 48° Northeast 207 238 27,000  Level Washington Center
09:51AM 38.7567 -78.3497 46° Northeast 213 245 27,000  Level Washington Center
09:52AM 38.7956 -78.2925 49° Northeast 213 245 27,000  Level Washington Center
09:53AM 38.8364 -78.2353 47° Northeast 213 245 27,000  Level Washington Center
09:54AM 38.8772 -78.1808 46° Northeast 213 245 27,000  Level Washington Center
09:55AM 38.9181 -78.1208 49° Northeast 213 245 27,000  Level Washington Center
09:56AM 38.9589 -78.0636 47° Northeast 213 245 27,000  Level Washington Center
09:57AM 38.9997 -78.0061 48° Northeast 213 245 27,000  Level Washington Center
09:58AM 39.0425 -77.9489 46° Northeast 213 245 27,000  Level Washington Center
09:59AM 39.0811 -77.8911 49° Northeast 213 245 27,000  Level Washington Center
10:00AM 39.1283 -77.8258 47° Northeast 213 245 27,000  Level Washington Center
10:01AM 39.1667 -77.7681 49° Northeast 213 245 27,000  Level Washington Center
10:02AM 39.2094 -77.7078 48° Northeast 213 245 27,000  Level Washington Center
10:03AM 39.2503 -77.6500 48° Northeast 213 245 27,000  Level Washington Center
10:04AM 39.2886 -77.5919 50° Northeast 213 245 27,000  Level Washington Center
10:07AM 39.3711 -77.4614 51° Northeast 212 244 27,000  Level New York Center
10:08AM 39.3961 -77.3886 66° East 207 238 27,000  Level New York Center
10:09AM 39.4167 -77.3178 69° East 212 244 27,000  Level New York Center
10:10AM 39.4392 -77.2528 66° East 217 250 27,000  Level New York Center
10:11AM 39.4619 -77.1794 68° East 217 250 27,000  Level New York Center
10:12AM 39.4867 -77.1064 66° East 212 244 27,000  Level New York Center
10:13AM 39.5094 -77.0331 68° East 212 244 27,000  Level New York Center
10:14AM 39.5342 -76.9597 66° East 212 244 27,000  Level New York Center
10:15AM 39.5564 -76.8917 67° East 212 244 27,000  Level New York Center
10:16AM 39.5789 -76.8183 68° East 206 237 27,000  Level New York Center
10:17AM 39.6036 -76.7450 66° East 211 243 27,000  Level New York Center
10:18AM 39.6258 -76.6739 68° East 211 243 27,000  Level New York Center
10:24AM 39.7690 -76.2250 68° East 100 115 27,000  Level FlightAware
10:25AM 39.7850 -76.1740 68° East 221 254 27,000  Level FlightAware
10:25AM 39.7990 -76.1310 67° East 222 255 27,000  Level FlightAware
10:26AM 39.8120 -76.0880 69° East 219 252 27,000  Level FlightAware
10:26AM 39.8250 -76.0470 68° East 222 255 27,000  Level FlightAware
10:27AM 39.8370 -76.0100 67° East 225 259 27,000  Level FlightAware
10:27AM 39.8520 -75.9620 68° East 228 262 27,000  Level FlightAware
10:28AM 39.8660 -75.9170 68° East 217 250 27,000  Level FlightAware
10:29AM 39.8810 -75.8710 67° East 225 259 27,000  Level FlightAware
10:29AM 39.8950 -75.8270 67° East 229 264 27,000  Level FlightAware
10:30AM 39.9070 -75.7850 70° East 223 257 27,000  Level FlightAware
10:30AM 39.9200 -75.7440 68° East 220 253 27,000  Level FlightAware
10:31AM 39.9350 -75.6960 68° East 218 251 27,000  Level FlightAware
10:32AM 39.9460 -75.6570 70° East 218 251 27,000  Level FlightAware
10:32AM 39.9610 -75.6130 66° East 221 254 27,000  Level FlightAware
10:33AM 39.9740 -75.5710 68° East 222 255 27,000  Level FlightAware
10:33AM 39.9890 -75.5230 68° East 224 258 27,000  Level FlightAware
10:34AM 40.0050 -75.4610 71° East 220 253 27,000  Level FlightAware
10:35AM 40.0150 -75.4220 71° East 220 253 27,000  Level FlightAware
10:35AM 40.0350 -75.3720 62° Northeast 221 254 27,000  Level FlightAware
10:36AM 40.0500 -75.3240 68° East 224 258 27,000  Level FlightAware
10:37AM 40.0640 -75.2820 66° East 224 258 27,000  Level FlightAware
10:37AM 40.0770 -75.2440 66° East 224 258 27,000  Level FlightAware
10:38AM 40.0910 -75.1880 72° East 212 244 27,000  Level FlightAware
10:38AM 40.1050 -75.1430 68° East 220 253 27,000  Level FlightAware
10:39AM 40.1170 -75.1020 69° East 220 253 27,000  Level FlightAware
10:40AM 40.1290 -75.0640 68° East 220 253 27,000  Level FlightAware
10:40AM 40.1410 -75.0250 68° East 220 253 27,000  Level FlightAware
10:41AM 40.1530 -74.9880 67° East 220 253 27,000  Level FlightAware
10:41AM 40.1640 -74.9500 69° East 220 253 27,000  Level FlightAware
10:42AM 40.1760 -74.9120 68° East 220 253 27,000  Level FlightAware
10:43AM 40.2011 -74.7956 68° East 222 255 27,000  Level New York Center
10:44AM 40.2206 -74.7153 72° East 222 255 27,000  Level New York Center
10:45AM 40.2422 -74.6267 72° East 228 262 27,000  Level New York Center
10:46AM 40.2617 -74.5461 72° East 234 269 27,000  Level New York Center
10:47AM 40.2831 -74.4603 72° East 240 276 27,000  Level New York Center
10:48AM 40.3022 -74.3769 73° East 240 276 27,000  Level New York Center
10:49AM 40.3236 -74.2936 71° East 240 276 27,000  Level New York Center
10:50AM 40.3428 -74.2103 73° East 240 276 27,000  Level New York Center
10:51AM 40.3639 -74.1269 72° East 240 276 27,000  Level New York Center
10:52AM 40.3975 -73.9933 72° East 242 278 27,000  Level Boston Center
10:53AM 40.4172 -73.9119 72° East 229 264 27,000  Level Boston Center
10:54AM 40.4372 -73.8250 73° East 229 264 27,000  Level Boston Center
10:55AM 40.4589 -73.7383 72° East 234 269 27,000  Level Boston Center
10:56AM 40.4767 -73.6458 76° East 242 278 27,000  Level Boston Center
10:57AM 40.4983 -73.5617 71° East 247 284 27,000  Level Boston Center
10:58AM 40.5181 -73.4747 73° East 247 284 27,000  Level Boston Center
10:59AM 40.5394 -73.3903 72° East 242 278 27,000  Level Boston Center
11:00AM 40.5589 -73.3058 73° East 242 278 27,000  Level Boston Center
11:01AM 40.5783 -73.2161 74° East 242 278 27,000  Level Boston Center
11:02AM 40.6019 -73.1289 70° East 242 278 27,000  Level Boston Center
11:03AM 40.6211 -73.0417 74° East 242 278 27,000  Level Boston Center
11:04AM 40.6403 -72.9514 74° East 242 278 27,000  Level Boston Center
11:05AM 40.6636 -72.8669 70° East 242 278 27,000 -240 Level Boston Center
11:06AM 40.6828 -72.7739 75° East 242 278 26,600 -720 Descending Boston Center
11:07AM 40.7039 -72.6811 73° East 247 284 25,600 -1,020 Descending Boston Center
11:08AM 40.7269 -72.5908 71° East 252 290 24,600 -1,080 Descending Boston Center
11:09AM 40.7500 -72.4894 73° East 257 296 23,500 -1,020 Descending Boston Center
11:10AM 40.7728 -72.3989 72° East 257 296 22,600 -900 Descending Boston Center
11:11AM 40.7936 -72.3086 73° East 257 296 21,700 -960 Descending Boston Center
11:12AM 40.8122 -72.2208 74° East 257 296 20,700 -900 Descending Boston Center
11:13AM 40.8328 -72.1356 72° East 251 289 20,000 -360 Descending Boston Center
11:14AM 40.8533 -72.0478 73° East 246 283 20,000  Level Boston Center
11:15AM 40.8717 -71.9542 75° East 246 283 20,000  Level Boston Center
11:16AM 40.8944 -71.8744 69° East 241 277 20,000  Level Boston Center
11:17AM 40.9147 -71.7864 73° East 241 277 20,000  Level Boston Center
11:18AM 40.9350 -71.6956 74° East 241 277 20,000  Level Boston Center
11:19AM 40.9531 -71.6047 75° East 241 277 20,000 -300 Level Boston Center
11:20AM 40.9689 -71.5056 78° East 253 291 19,400 -900 Descending Boston Center
11:21AM 40.9892 -71.4172 73° East 253 291 18,300 -1,020 Descending Boston Center
11:22AM 41.0072 -71.3428 72° East 242 278 17,400 -1,020 Descending Boston Center
11:23AM 41.0250 -71.2569 75° East 231 266 16,300 -1,080 Descending Boston Center
11:24AM 41.0389 -71.1853 76° East 219 252 15,300 -1,020 Descending Boston Center
11:25AM 41.0586 -71.1022 72° East 219 252 14,300 -960 Descending Boston Center
11:26AM 41.0725 -71.0358 74° East 209 241 13,500 -900 Descending Boston Center
11:27AM 41.0881 -70.9583 75° East 204 235 12,500 -1,020 Descending Boston Center
11:28AM 41.0936 -70.8922 84° East 199 229 11,500 -1,140 Descending Boston Center
11:29AM 41.1050 -70.8203 78° East 194 223 10,300 -1,140 Descending Boston Center
11:30AM 41.1122 -70.7542 82° East 188 216 9,300 -1,020 Descending Boston Center
11:31AM 41.1197 -70.6878 81° East 182 209 8,400 -960 Descending Boston Center
11:32AM 41.1269 -70.6186 82° East 182 209 7,400 -960 Descending Boston Center
11:33AM 41.1319 -70.5522 84° East 182 209 6,500 -900 Descending Boston Center
11:34AM 41.1375 -70.4969 82° East 176 203 5,700 -900 Descending Boston Center
11:35AM 41.1447 -70.4361 81° East 166 191 4,800 -900 Descending Boston Center
11:36AM 41.1500 -70.3808 83° East 160 184 3,900 -1,020 Descending Boston Center
11:37AM 41.1531 -70.3256 86° East 155 178 2,800 -1,020 Descending Boston Center
11:38AM 41.1583 -70.2758 82° East 149 171 2,000 -420 Descending Boston Center
11:39AM 41.1492 -70.2319 105° East 131 151 2,000 -60 Level Boston Center
11:40AM 41.1650 -70.1928 62° Northeast 116 133 1,900 -60 Descending Boston Center
11:41AM 41.1831 -70.1619 52° Northeast 102 117 1,900 -360 Level Boston Center
11:42AM 41.2056 -70.1336 43° Northeast 102 117 1,200 -600 Descending Boston Center
11:43AM 41.2194 -70.1028 59° Northeast 102 117 700 4,980 Descending Boston Center
11:44AM 41.2397 -70.0772 43° Northeast 97 112 11,000 5,220 Climbing Boston Center
11:45AM 41.2581 -70.0517 46° Northeast 97 112 11,000  Level Boston Center